Yigo, Guam
Current Conditions -  °F | °C
As of 11:58 AM on Monday 22 Dec 2014 (Local Time) from PGUA Reporting Station
Broken Clouds Broken Clouds  
Wind Chill: 84°   Ceiling: 1200
Heat Index: 94°   Visibility: 10mi
Dew Point: 77°   Wind: 21mph
Humidity: 81%   Direction: 80°E
Pressure: 29.89"   Gusts: NA
Location:  13.53°N, 144.89°E
Report Text: PGUA 220158Z AUTO 08018KT 10SM BKN012 29/25 A2989 RMK AO2 BKN V SCT SLP112 T02880252 $
Loading
Personal Weather Stations






























Interactive Weather Map New forecast layout! Learn more

10-Day Weather Forecast

Advertisements
Track Severe Weather on mobile